Flight Track Log - Related Links

Times and Time Zones

All times are in EDT time to prevent confusion due to time zone crossing. See the N444WR flight status page for this flight to view local times or setup timezone preferences in your user account.

Time Position Orientation Groundspeed Altitude Reporting Facility
EDT Latitude Longitude Course Direction KTS MPH feet Rate Location/Type
Thu 05:58:25 PM 35.1333 -89.3167 129° Southeast 112 129 3,400  Level KMEM
Thu 05:59:29 PM 35.1156 -89.2900 129° Southeast 114 131 4,100 667 Climbing Memphis Center
Thu 06:00:31 PM 35.0922 -89.2633 137° Southeast 114 131 4,800 726 Climbing Memphis Center
Thu 06:01:33 PM 35.0619 -89.2303 138° Southeast 117 135 5,600 726 Climbing Memphis Center
Thu 06:02:35 PM 35.0361 -89.2022 138° Southeast 120 138 6,300 629 Climbing Memphis Center
Thu 06:03:37 PM 35.0094 -89.1719 137° Southeast 125 144 6,900 339 Climbing Memphis Center
Thu 06:04:39 PM 34.9792 -89.1361 136° Southeast 143 165 7,000 48 Climbing Memphis Center
Thu 06:05:41 PM 34.9428 -89.0989 140° Southeast 163 188 7,000 -48 Level Memphis Center
Thu 06:06:43 PM 34.9103 -89.0583 134° Southeast 164 189 6,900 -48 Descending Memphis Center
Thu 06:07:45 PM 34.8678 -89.0139 139° Southeast 165 190 6,900 48 Level Memphis Center
Thu 06:08:47 PM 34.8344 -88.9772 138° Southeast 165 190 7,000 48 Climbing Memphis Center
Thu 06:09:49 PM 34.8011 -88.9400 137° Southeast 165 190 7,000  Level Memphis Center
Thu 06:10:51 PM 34.7669 -88.9031 138° Southeast 164 189 7,000 48 Level Memphis Center
Thu 06:11:53 PM 34.7328 -88.8653 138° Southeast 164 189 7,100  Climbing Memphis Center
Thu 06:12:55 PM 34.6992 -88.8272 137° Southeast 164 189 7,000 -48 Descending Memphis Center
Thu 06:13:57 PM 34.6653 -88.7894 137° Southeast 164 189 7,000 48 Level Memphis Center
Thu 06:14:59 PM 34.6253 -88.7456 138° Southeast 164 189 7,100  Climbing Memphis Center
Thu 06:16:01 PM 34.5967 -88.7139 138° Southeast 161 185 7,000 -48 Descending Memphis Center
Thu 06:17:03 PM 34.5642 -88.6786 138° Southeast 160 184 7,000 48 Level Memphis Center
Thu 06:18:05 PM 34.5264 -88.6361 137° Southeast 158 182 7,100 49 Climbing Memphis Center
Thu 06:19:06 PM 34.4947 -88.6017 138° Southeast 157 181 7,100  Level Memphis Center
Thu 06:20:08 PM 34.4617 -88.5667 139° Southeast 157 181 7,100  Level Memphis Center
Thu 06:20:39 PM 34.4439 -88.5492 141° Southeast 156 180 7,100 -97 Level Memphis Center
Thu 06:21:10 PM 34.4300 -88.5303 132° Southeast 157 181 7,000  Descending Memphis Center
Thu 06:21:27 PM 34.4169 -88.5164 139° Southeast 160 184 7,100 -97 Climbing Memphis Center
Thu 06:22:12 PM 34.3978 -88.4947 137° Southeast 157 181 6,900 -112 Descending Memphis Center
Thu 06:23:14 PM 34.3644 -88.4592 139° Southeast 157 181 6,900  Level Memphis Center
Thu 06:24:16 PM 34.3256 -88.4172 138° Southeast 157 181 6,900  Level Memphis Center
Thu 06:25:18 PM 34.2942 -88.3817 137° Southeast 157 181 6,900  Level Memphis Center
Thu 06:26:20 PM 34.2622 -88.3472 138° Southeast 157 181 6,900  Level Memphis Center
Thu 06:27:22 PM 34.2297 -88.3111 137° Southeast 157 181 6,900 49 Level Memphis Center
Thu 06:28:23 PM 34.1978 -88.2772 139° Southeast 157 181 7,000  Climbing Memphis Center
Thu 06:28:33 PM 34.1872 -88.2675 143° Southeast 158 182 6,900 -97 Descending Memphis Center
Thu 06:29:25 PM 34.1653 -88.2411 135° Southeast 157 181 6,900  Level Memphis Center
Thu 06:30:27 PM 34.1267 -88.1983 137° Southeast 157 181 6,900  Level Memphis Center
Thu 06:31:29 PM 34.0936 -88.1642 139° Southeast 157 181 6,900  Level Memphis Center
Thu 06:32:24 PM 34.0619 -88.1297 138° Southeast 157 181 6,900  Level Memphis Center
Thu 06:33:25 PM 34.0306 -88.0972 139° Southeast 154 177 6,900 46 Level Memphis Center
Thu 06:34:35 PM 33.9975 -88.0611 138° Southeast 155 178 7,000  Climbing Memphis Center
Thu 06:35:26 PM 33.9656 -88.0275 139° Southeast 155 178 6,900  Descending Memphis Center
Thu 06:35:37 PM 33.9664 -88.0253 66° East 154 177 7,000  Climbing Memphis Center
Thu 06:36:27 PM 33.9319 -87.9900 140° Southeast 156 180 6,900  Descending Memphis Center
Thu 06:36:38 PM 33.9278 -87.9839 129° Southeast 155 178 7,000 82 Climbing Memphis Center
Thu 06:37:40 PM 33.8944 -87.9497 140° Southeast 155 178 7,000 -55 Level Memphis Center
Thu 06:38:28 PM 33.8692 -87.9228 138° Southeast 153 176 6,900 97 Descending Memphis Center
Thu 06:38:42 PM 33.8633 -87.9153 133° Southeast 155 178 7,100 79 Climbing Memphis Center
Thu 06:39:44 PM 33.8317 -87.8817 139° Southeast 155 178 7,000 -49 Descending Memphis Center
Thu 06:40:45 PM 33.8003 -87.8478 138° Southeast 155 178 7,000  Level Memphis Center
Thu 06:41:47 PM 33.7694 -87.8142 138° Southeast 154 177 7,000  Level Memphis Center
Thu 06:42:49 PM 33.7328 -87.7750 138° Southeast 152 175 7,000  Level Memphis Center
Thu 06:43:51 PM 33.7017 -87.7425 139° Southeast 150 173 7,000  Level Memphis Center
Thu 06:44:53 PM 33.6722 -87.7103 138° Southeast 150 173 7,000  Level Memphis Center
Thu 06:45:55 PM 33.6425 -87.6778 138° Southeast 148 170 7,000  Level Memphis Center
Thu 06:46:56 PM 33.6122 -87.6461 139° Southeast 148 170 7,000  Level Memphis Center
Thu 06:47:58 PM 33.5825 -87.6136 138° Southeast 148 170 7,000  Level Memphis Center
Thu 06:49:00 PM 33.5453 -87.5753 139° Southeast 148 170 7,000  Level Memphis Center
Thu 06:50:02 PM 33.5156 -87.5422 137° Southeast 148 170 7,000  Level Memphis Center
Thu 06:51:04 PM 33.4844 -87.5111 140° Southeast 148 170 7,000  Level Memphis Center
Thu 06:52:06 PM 33.4539 -87.4783 138° Southeast 148 170 7,000  Level Memphis Center
Thu 06:53:08 PM 33.4242 -87.4461 138° Southeast 147 169 7,000  Level Memphis Center
Thu 06:54:10 PM 33.3953 -87.4139 137° Southeast 147 169 7,000  Level Memphis Center
Thu 06:55:11 PM 33.3589 -87.3758 139° Southeast 147 169 7,000  Level Memphis Center
Thu 06:56:13 PM 33.3289 -87.3444 139° Southeast 147 169 7,000  Level Memphis Center
Thu 06:57:15 PM 33.2981 -87.3122 139° Southeast 147 169 7,000  Level Memphis Center
Thu 06:58:38 PM 33.2531 -87.2706 142° Southeast 147 169 7,000 43 Level Atlanta Center
Thu 06:59:33 PM 33.2267 -87.2422 138° Southeast 144 166 7,100  Climbing Atlanta Center
Thu 07:00:16 PM 33.2044 -87.2167 136° Southeast 146 168 7,000 -58 Descending Atlanta Center
Thu 07:01:16 PM 33.1736 -87.1906 145° Southeast 151 174 7,000  Level Atlanta Center
Thu 07:02:16 PM 33.1408 -87.1647 147° Southeast 146 168 7,000 50 Level Atlanta Center
Thu 07:03:16 PM 33.1106 -87.1314 137° Southeast 146 168 7,100  Climbing Atlanta Center
Thu 07:04:16 PM 33.0800 -87.1031 142° Southeast 146 168 7,000 -50 Descending Atlanta Center
Thu 07:05:16 PM 33.0472 -87.0747 144° Southeast 146 168 7,000  Level Atlanta Center
Thu 07:06:16 PM 33.0144 -87.0436 141° Southeast 146 168 7,000  Level Atlanta Center
Thu 07:07:16 PM 32.9839 -87.0153 142° Southeast 146 168 7,000 50 Level Atlanta Center
Thu 07:08:16 PM 32.9511 -86.9872 144° Southeast 146 168 7,100 50 Climbing Atlanta Center
Thu 07:09:16 PM 32.9206 -86.9589 142° Southeast 146 168 7,100  Level Atlanta Center
Thu 07:10:16 PM 32.8881 -86.9256 139° Southeast 146 168 7,100 -50 Level Atlanta Center
Thu 07:11:16 PM 32.8572 -86.8975 143° Southeast 146 168 7,000  Descending Atlanta Center
Thu 07:12:16 PM 32.8247 -86.8667 141° Southeast 146 168 7,100 50 Climbing Atlanta Center
Thu 07:13:16 PM 32.7919 -86.8383 144° Southeast 146 168 7,100 -98 Level Atlanta Center
Thu 07:14:18 PM 32.7614 -86.8028 136° Southeast 156 180 6,900 -20 Descending Atlanta Center
Thu 07:18:18 PM 32.6283 -86.6828 143° Southeast 147 169 7,000 12 Climbing Atlanta Center
Thu 07:22:19 PM 32.4950 -86.5681 144° Southeast 150 173 7,000  Level Atlanta Center
Thu 07:26:20 PM 32.3597 -86.4536 137° Southeast 154 177 7,000  Level Atlanta Center
Thu 07:30:20 PM 32.2181 -86.3294 138° Southeast 152 175 7,000 12 Level Atlanta Center
Thu 07:34:21 PM 32.0789 -86.2247 137° Southeast 155 178 7,100 24 Climbing Jacksonville Center
Thu 07:34:33 PM 32.0708 -86.2169 141° Southeast 155 178 7,100  Level Jacksonville Center
Thu 07:35:00 PM 32.1020 -86.1769 138° Southeast  Level FlightAware Approximate
Thu 07:35:33 PM 32.0361 -86.1839 141° Southeast 155 178 7,100  Level Jacksonville Center
Thu 07:36:34 PM 32.0058 -86.1436 132° Southeast 157 181 7,100  Level Jacksonville Center
Thu 07:37:34 PM 31.9753 -86.1106 137° Southeast 156 180 7,100 -50 Level Jacksonville Center
Thu 07:38:35 PM 31.9428 -86.0753 137° Southeast 152 175 7,000 -49 Descending Jacksonville Center
Thu 07:39:00 PM 31.9659 -86.0461 137° Southeast  Level Estimated
Thu 07:39:36 PM 31.9144 -86.0425 136° Southeast 154 177 7,000  Level Jacksonville Center
Thu 07:40:42 PM 31.8819 -86.0022 134° Southeast 152 175 7,000  Level Jacksonville Center
Thu 07:41:43 PM 31.8475 -85.9667 139° Southeast 151 174 7,000  Level Jacksonville Center
Thu 07:42:43 PM 31.8189 -85.9342 136° Southeast 151 174 7,000  Level Jacksonville Center
Thu 07:43:44 PM 31.7886 -85.8989 135° Southeast 148 170 7,000  Level Jacksonville Center
Thu 07:44:45 PM 31.7600 -85.8661 136° Southeast 148 170 7,000  Level Jacksonville Center
Thu 07:45:39 PM 31.7317 -85.8333 135° Southeast 148 170 7,000  Level Jacksonville Center
Thu 07:46:40 PM 31.7011 -85.8008 138° Southeast 147 169 7,000  Level Jacksonville Center
Thu 07:47:40 PM 31.6725 -85.7681 136° Southeast 149 171 7,000  Level Jacksonville Center
Thu 07:48:41 PM 31.6442 -85.7331 134° Southeast 148 170 7,000  Level Jacksonville Center
Thu 07:49:42 PM 31.6114 -85.6981 138° Southeast 148 170 7,000  Level Jacksonville Center
Thu 07:50:42 PM 31.5828 -85.6678 138° Southeast 150 173 7,000  Level Jacksonville Center
Thu 07:51:43 PM 31.5525 -85.6303 133° Southeast 152 175 7,000  Level Jacksonville Center
Thu 07:52:43 PM 31.5219 -85.5953 136° Southeast 152 175 7,000  Level Jacksonville Center
Thu 07:53:44 PM 31.4892 -85.5628 140° Southeast 152 175 7,000  Level Jacksonville Center
Thu 07:54:45 PM 31.4567 -85.5228 134° Southeast 157 181 7,000  Level Jacksonville Center
Thu 07:55:45 PM 31.4258 -85.4903 138° Southeast 157 181 7,000  Level Jacksonville Center
Thu 07:56:46 PM 31.3953 -85.4531 134° Southeast 156 180 7,000  Level Jacksonville Center
Thu 07:57:46 PM 31.3625 -85.4181 138° Southeast 156 180 7,000  Level Jacksonville Center
Thu 07:58:47 PM 31.3300 -85.3856 139° Southeast 155 178 7,000  Level Jacksonville Center
Thu 07:59:54 PM 31.2972 -85.3481 136° Southeast 155 178 7,000  Level Jacksonville Center
Thu 08:00:54 PM 31.2644 -85.3108 136° Southeast 158 182 7,000  Level Jacksonville Center
Thu 08:01:55 PM 31.2319 -85.2736 136° Southeast 156 180 7,000  Level Jacksonville Center
Thu 08:02:49 PM 31.2011 -85.2436 140° Southeast 155 178 7,000  Level Jacksonville Center
Thu 08:03:50 PM 31.1725 -85.2114 136° Southeast 156 180 7,000 -49 Level Jacksonville Center
Thu 08:04:51 PM 31.1397 -85.1742 136° Southeast 155 178 6,900  Descending Jacksonville Center
Thu 08:05:51 PM 31.1089 -85.1442 140° Southeast 153 176 7,000 50 Climbing Jacksonville Center
Thu 08:06:52 PM 31.0761 -85.1072 136° Southeast 151 174 7,000  Level Jacksonville Center
Thu 08:08:00 PM 31.0454 -85.0680 132° Southeast  Level FlightAware Approximate
Thu 08:15:00 PM 30.8509 -84.8297 137° Southeast  Level FlightAware Approximate
Thu 08:16:00 PM 30.8216 -84.7977 137° Southeast  Level FlightAware Approximate
Thu 08:17:00 PM 30.7923 -84.7657 137° Southeast  Level FlightAware Approximate
Thu 08:18:00 PM 30.7629 -84.7337 137° Southeast  Level FlightAware Approximate
Thu 08:19:00 PM 30.7336 -84.7018 137° Southeast  Level FlightAware Approximate
Thu 08:20:00 PM 30.7038 -84.6704 139° Southeast  Level FlightAware Approximate
Thu 08:21:00 PM 30.6733 -84.6400 139° Southeast  Level FlightAware Approximate
Thu 08:22:00 PM 30.6429 -84.6095 139° Southeast  Level FlightAware Approximate
Thu 08:23:00 PM 30.6128 -84.5787 134° Southeast  Level FlightAware Approximate
Thu 08:24:00 PM 30.5848 -84.5451 134° Southeast  Level FlightAware Approximate
Thu 08:25:00 PM 30.5569 -84.5116 134° Southeast  Level FlightAware Approximate
Thu 08:26:00 PM 30.5286 -84.4786 139° Southeast  Level FlightAware Approximate
Thu 08:27:00 PM 30.4981 -84.4481 139° Southeast  Level FlightAware Approximate
Thu 08:28:00 PM 30.4677 -84.4177 139° Southeast  Level FlightAware Approximate
Thu 08:29:00 PM 30.4359 -84.3894 147° Southeast  Level FlightAware Approximate
Thu 08:30:00 PM 30.4021 -84.3641 147° Southeast  Level FlightAware Approximate
Thu 08:31:00 PM 30.3967 -84.3509 147° Southeast  Level Estimated
Thu 08:32:00 PM 30.3967 -84.3509 177° South  Level Estimated
Thu 08:33:00 PM 30.3967 -84.3509 147° Southeast  Level Estimated
Thu 08:34:00 PM 30.3967 -84.3509 177° South  Level Estimated
Thu 08:35:00 PM 30.3967 -84.3509 147° Southeast  Level Estimated
Thu 08:36:00 PM 30.3967 -84.3509 177° South  Level Estimated
Thu 08:37:00 PM 30.3967 -84.3509 147° Southeast  Level Estimated
Thu 08:38:00 PM 30.3967 -84.3509 177° South  Level Estimated
Thu 08:39:00 PM 30.3967 -84.3509 147° Southeast  Level Estimated

Login

Don't have an account? Register now (free) for customized features, flight alerts, and more!